createdAt,value
2019-05-02T00:01:42.723Z,74.63
2019-05-02T00:04:19.584Z,76.93
2019-05-02T00:06:46.001Z,76.73
2019-05-02T00:09:15.462Z,74.60
2019-05-02T00:11:58.347Z,75.20
2019-05-02T00:14:16.856Z,74.67
2019-05-02T00:16:49.301Z,74.37
2019-05-02T00:19:17.654Z,72.83
2019-05-02T00:21:47.197Z,75.90
2019-05-02T00:24:16.674Z,75.50
2019-05-02T00:26:46.241Z,77.57
2019-05-02T00:29:19.036Z,74.50
2019-05-02T00:31:48.850Z,79.17
2019-05-02T00:34:18.469Z,72.17
2019-05-02T00:36:48.312Z,74.77
2019-05-02T00:39:17.961Z,75.00
2019-05-02T00:41:47.435Z,75.00
2019-05-02T00:44:16.897Z,68.10
2019-05-02T00:46:46.513Z,71.67
2019-05-02T00:49:16.002Z,79.50
2019-05-02T00:51:45.979Z,74.47
2019-05-02T00:54:19.196Z,80.57
2019-05-02T00:56:46.906Z,77.73
2019-05-02T00:59:16.799Z,73.13
2019-05-02T01:01:53.201Z,73.63
2019-05-02T01:07:05.710Z,75.73
2019-05-02T01:09:35.279Z,73.50
2019-05-02T01:12:08.425Z,75.73
2019-05-02T01:14:36.942Z,71.60
2019-05-02T01:17:06.927Z,73.40
2019-05-02T01:19:36.816Z,68.20
2019-05-02T01:22:10.548Z,69.50
2019-05-02T01:24:39.610Z,69.60
2019-05-02T01:27:27.117Z,74.97
2019-05-02T01:30:05.890Z,68.47
2019-05-02T01:32:42.526Z,68.20
2019-05-02T01:35:17.872Z,70.50
2019-05-02T01:38:15.675Z,67.53
2019-05-02T01:40:48.218Z,67.93
2019-05-02T01:43:24.037Z,71.20
2019-05-02T01:45:51.791Z,68.37
2019-05-02T01:48:22.648Z,73.90
2019-05-02T01:50:53.150Z,67.33
2019-05-02T01:53:23.107Z,70.47
2019-05-02T01:55:57.259Z,67.83
2019-05-02T01:58:23.965Z,74.40
2019-05-02T02:00:53.695Z,72.47
2019-05-02T02:03:23.260Z,76.63
2019-05-02T02:05:52.845Z,76.27
2019-05-02T02:08:22.392Z,75.30
2019-05-02T02:10:56.490Z,83.57
2019-05-02T02:13:23.536Z,83.30
2019-05-02T02:15:53.098Z,84.77
2019-05-02T02:18:27.612Z,82.10
2019-05-02T02:21:13.943Z,83.87
2019-05-02T02:24:05.946Z,83.47
2019-05-02T02:26:35.411Z,75.87
2019-05-02T02:29:07.977Z,75.17
2019-05-02T02:31:40.010Z,82.17
2019-05-02T02:34:07.782Z,77.13
2019-05-02T02:36:37.359Z,77.77
2019-05-02T02:39:14.572Z,79.07
2019-05-02T02:41:39.084Z,79.17
2019-05-02T02:44:39.940Z,77.77
2019-05-02T02:47:12.171Z,79.33
2019-05-02T02:49:37.962Z,78.63
2019-05-02T02:52:07.846Z,75.33
2019-05-02T02:54:43.079Z,71.03
2019-05-02T02:57:21.926Z,81.03
2019-05-02T02:59:40.131Z,76.13
2019-05-02T03:02:11.833Z,81.27
2019-05-02T03:04:44.047Z,73.43
2019-05-02T03:07:24.203Z,69.20
2019-05-02T03:09:43.672Z,69.77
2019-05-02T03:12:36.298Z,71.10
2019-05-02T03:15:04.812Z,68.60
2019-05-02T03:17:34.363Z,72.90
2019-05-02T03:20:04.886Z,75.83
2019-05-02T03:22:41.064Z,79.83
2019-05-02T03:25:05.687Z,77.00
2019-05-02T03:27:37.258Z,78.17
2019-05-02T03:30:06.678Z,82.83
2019-05-02T03:32:36.812Z,79.30
2019-05-02T03:35:06.472Z,77.97
2019-05-02T03:37:37.127Z,79.40
2019-05-02T03:40:06.612Z,73.30
2019-05-02T03:42:43.881Z,73.73
2019-05-02T03:45:07.432Z,72.20
2019-05-02T03:47:43.724Z,70.37
2019-05-02T03:50:09.425Z,70.50
2019-05-02T03:52:43.498Z,67.27
2019-05-02T03:55:11.019Z,72.70
2019-05-02T03:57:42.218Z,68.80
2019-05-02T04:00:20.159Z,65.03
2019-05-02T04:02:43.598Z,64.60
2019-05-02T04:05:13.224Z,64.57
2019-05-02T04:07:43.464Z,65.20
2019-05-02T04:10:19.651Z,64.13
2019-05-02T04:12:53.065Z,60.40
2019-05-02T04:15:18.694Z,61.83
2019-05-02T04:17:48.223Z,62.37
2019-05-02T04:20:18.479Z,59.77
2019-05-02T04:22:49.083Z,61.10
2019-05-02T04:25:19.753Z,61.07
2019-05-02T04:27:50.265Z,59.90
2019-05-02T04:30:19.828Z,60.77
2019-05-02T04:32:55.293Z,61.87
2019-05-02T04:35:20.793Z,63.53
2019-05-02T04:37:50.259Z,57.93
2019-05-02T04:40:20.943Z,59.87
2019-05-02T04:43:01.037Z,60.03
2019-05-02T04:45:29.457Z,59.97
2019-05-02T04:47:58.515Z,59.57
2019-05-02T04:50:25.570Z,60.03
2019-05-02T04:52:59.116Z,56.30
2019-05-02T04:55:32.299Z,58.33
2019-05-02T04:58:01.675Z,56.50
2019-05-02T05:00:29.885Z,57.13
2019-05-02T05:02:59.720Z,58.43
2019-05-02T05:05:31.279Z,56.67
2019-05-02T05:08:00.742Z,57.10
2019-05-02T05:10:40.098Z,59.10
2019-05-02T05:13:01.387Z,57.53
2019-05-02T05:15:40.285Z,55.13
2019-05-02T05:18:04.434Z,57.03
2019-05-02T05:20:33.345Z,56.80
2019-05-02T05:23:03.890Z,57.83
2019-05-02T05:25:39.085Z,55.73
2019-05-02T05:28:09.080Z,58.67
2019-05-02T05:30:45.207Z,57.83
2019-05-02T05:33:10.412Z,55.97
2019-05-02T05:35:43.380Z,58.57
2019-05-02T05:38:12.046Z,57.20
2019-05-02T05:40:41.622Z,57.67
2019-05-02T05:43:15.483Z,57.40
2019-05-02T05:45:53.496Z,54.33
2019-05-02T05:48:14.495Z,54.60
2019-05-02T05:50:44.069Z,52.93
2019-05-02T05:53:17.220Z,58.13
2019-05-02T05:55:48.115Z,59.77
2019-05-02T05:58:18.821Z,57.97
2019-05-02T06:00:53.820Z,54.07
2019-05-02T06:03:19.752Z,51.90
2019-05-02T06:05:49.256Z,51.53
2019-05-02T06:08:19.938Z,50.43
2019-05-02T06:10:49.682Z,49.10
2019-05-02T06:13:19.321Z,47.10
2019-05-02T06:16:01.274Z,47.63
2019-05-02T06:18:20.425Z,47.87
2019-05-02T06:20:49.987Z,48.63
2019-05-02T06:23:21.330Z,49.33
2019-05-02T06:25:50.845Z,49.60
2019-05-02T06:28:20.368Z,48.03
2019-05-02T06:30:49.960Z,48.97
2019-05-02T06:33:19.455Z,48.53
2019-05-02T06:35:51.900Z,48.20
2019-05-02T06:38:21.680Z,48.00
2019-05-02T06:40:51.382Z,46.93
2019-05-02T06:43:20.872Z,48.70
2019-05-02T06:45:50.533Z,47.00
2019-05-02T06:48:20.166Z,48.13
2019-05-02T06:50:50.269Z,48.43
2019-05-02T06:53:20.066Z,47.50
2019-05-02T06:55:49.884Z,44.63
2019-05-02T06:58:19.478Z,46.43
2019-05-02T07:00:57.405Z,46.60
2019-05-02T07:03:20.378Z,45.60
2019-05-02T07:05:49.931Z,45.40
2019-05-02T07:08:19.884Z,46.10
2019-05-02T07:10:49.419Z,45.80
2019-05-02T07:13:19.338Z,45.33
2019-05-02T07:16:15.602Z,46.03
2019-05-02T07:18:49.601Z,43.57
2019-05-02T07:21:23.362Z,46.20
2019-05-02T07:23:53.693Z,45.30
2019-05-02T07:26:23.301Z,44.33
2019-05-02T07:28:52.995Z,43.87
2019-05-02T07:31:22.938Z,39.13
2019-05-02T07:33:52.514Z,39.33
2019-05-02T07:36:22.081Z,36.83
2019-05-02T07:38:51.982Z,40.50
2019-05-02T07:41:24.110Z,42.27
2019-05-02T07:43:56.258Z,42.33
2019-05-02T07:46:23.868Z,44.17
2019-05-02T07:48:54.682Z,46.97
2019-05-02T07:51:24.739Z,48.30
2019-05-02T07:53:55.809Z,52.27
2019-05-02T07:56:25.942Z,53.47
2019-05-02T07:58:55.461Z,51.53
2019-05-02T08:01:25.025Z,51.47
2019-05-02T08:03:54.870Z,53.73
2019-05-02T08:06:34.892Z,54.17
2019-05-02T08:08:55.616Z,52.33
2019-05-02T08:11:25.166Z,55.90
2019-05-02T08:14:00.137Z,56.67
2019-05-02T08:16:27.334Z,57.07
2019-05-02T08:19:01.355Z,56.53
2019-05-02T08:21:32.600Z,57.40
2019-05-02T08:24:02.283Z,57.57
2019-05-02T08:26:53.361Z,55.60
2019-05-02T08:29:23.419Z,55.00
2019-05-02T08:31:53.478Z,55.67
2019-05-02T08:34:30.346Z,55.70
2019-05-02T08:37:03.311Z,51.53
2019-05-02T08:39:33.772Z,53.17
2019-05-02T08:42:02.693Z,55.33
2019-05-02T08:44:32.263Z,54.17
2019-05-02T08:47:02.222Z,54.00
2019-05-02T08:49:32.122Z,52.23
2019-05-02T08:52:01.667Z,52.90
2019-05-02T08:54:32.825Z,51.33
2019-05-02T08:57:02.721Z,51.87
2019-05-02T08:59:32.239Z,50.80
2019-05-02T09:02:01.764Z,49.53
2019-05-02T09:04:31.390Z,52.60
2019-05-02T09:07:01.514Z,51.17
2019-05-02T09:09:31.169Z,52.13
2019-05-02T09:12:11.381Z,49.80
2019-05-02T09:14:32.320Z,51.40
2019-05-02T09:17:08.854Z,52.00
2019-05-02T09:19:34.967Z,54.80
2019-05-02T09:22:07.587Z,53.25
2019-05-02T09:24:35.720Z,53.87
2019-05-02T09:27:05.320Z,52.75
2019-05-02T09:29:37.413Z,54.85
2019-05-02T09:32:06.400Z,51.50
2019-05-02T09:34:37.035Z,51.75
2019-05-02T09:37:06.594Z,48.50
2019-05-02T09:39:36.643Z,46.13
2019-05-02T09:42:06.682Z,48.23
2019-05-02T09:44:37.430Z,45.90
2019-05-02T09:47:09.032Z,47.15
2019-05-02T09:49:43.568Z,47.67
2019-05-02T09:52:11.791Z,47.55
2019-05-02T09:54:45.896Z,47.73
2019-05-02T09:57:12.993Z,46.40
2019-05-02T09:59:50.278Z,47.13
2019-05-02T10:02:13.860Z,45.73
2019-05-02T10:04:44.154Z,46.75
2019-05-02T10:07:15.525Z,45.85
2019-05-02T10:09:45.192Z,42.73
2019-05-02T10:12:14.846Z,42.23
2019-05-02T10:14:44.444Z,41.53
2019-05-02T10:17:14.382Z,43.63
2019-05-02T10:19:49.549Z,43.60
2019-05-02T10:22:15.227Z,43.30
2019-05-02T10:24:44.692Z,44.03
2019-05-02T10:27:14.230Z,43.17
2019-05-02T10:29:44.264Z,44.03
2019-05-02T10:32:16.670Z,45.45
2019-05-02T10:34:50.577Z,46.18
2019-05-02T10:37:16.496Z,42.03
2019-05-02T10:39:46.167Z,44.50
2019-05-02T10:42:16.008Z,43.20
2019-05-02T10:44:45.914Z,43.80
2019-05-02T10:47:15.467Z,42.60
2019-05-02T10:49:55.184Z,45.78
2019-05-02T10:52:29.639Z,44.18
2019-05-02T10:54:57.211Z,45.20
2019-05-02T10:57:26.820Z,45.38
2019-05-02T10:59:56.597Z,44.20
2019-05-02T11:02:37.830Z,42.23
2019-05-02T11:05:16.768Z,40.52
2019-05-02T11:07:43.562Z,36.58
2019-05-02T11:10:13.146Z,37.55
2019-05-02T11:12:52.654Z,43.33
2019-05-02T11:15:41.838Z,41.37
2019-05-02T11:18:12.693Z,41.50
2019-05-02T11:20:42.279Z,41.02
2019-05-02T11:23:12.732Z,41.73
2019-05-02T11:25:42.371Z,42.50
2019-05-02T11:28:12.451Z,41.68
2019-05-02T11:30:43.231Z,41.25
2019-05-02T11:33:13.519Z,41.70
2019-05-02T11:35:49.208Z,39.18
2019-05-02T11:38:15.150Z,37.03
2019-05-02T11:40:45.009Z,35.92
2019-05-02T11:43:14.564Z,36.58
2019-05-02T11:45:44.134Z,39.15
2019-05-02T11:48:14.042Z,40.15
2019-05-02T11:50:43.684Z,38.50
2019-05-02T11:53:24.863Z,38.23
2019-05-02T11:55:44.371Z,39.73
2019-05-02T11:58:13.849Z,37.42
2019-05-02T12:00:48.265Z,37.15
2019-05-02T12:03:42.159Z,37.30
2019-05-02T12:06:16.158Z,37.03
2019-05-02T12:08:47.722Z,33.50
2019-05-02T12:11:23.169Z,31.50
2019-05-02T12:13:56.930Z,32.10
2019-05-02T12:16:24.496Z,32.73
2019-05-02T12:19:07.898Z,34.38
2019-05-02T12:21:25.596Z,32.48
2019-05-02T12:23:55.422Z,31.20
2019-05-02T12:26:24.959Z,28.90
2019-05-02T12:28:55.162Z,29.00
2019-05-02T12:31:28.708Z,28.90
2019-05-02T12:33:59.608Z,27.58
2019-05-02T12:36:29.528Z,27.52
2019-05-02T12:39:02.265Z,26.57
2019-05-02T12:41:33.433Z,25.62
2019-05-02T12:44:03.135Z,25.55
2019-05-02T12:46:33.055Z,25.65
2019-05-02T12:49:03.067Z,25.57
2019-05-02T12:51:32.710Z,25.92
2019-05-02T12:54:02.502Z,24.12
2019-05-02T12:56:32.474Z,25.05
2019-05-02T12:59:02.586Z,22.80
2019-05-02T13:01:33.378Z,23.60
2019-05-02T13:04:08.728Z,20.95
2019-05-02T13:06:38.221Z,24.18
2019-05-02T13:09:08.842Z,24.57
2019-05-02T13:12:09.917Z,23.90
2019-05-02T13:14:39.569Z,25.05
2019-05-02T13:17:09.601Z,24.72
2019-05-02T13:19:41.360Z,25.45
2019-05-02T13:22:41.980Z,27.17
2019-05-02T13:25:14.305Z,24.85
2019-05-02T13:27:47.952Z,25.55
2019-05-02T13:30:27.192Z,24.92
2019-05-02T13:33:00.146Z,23.12
2019-05-02T13:35:51.985Z,23.65
2019-05-02T13:38:22.640Z,20.80
2019-05-02T13:40:52.403Z,22.02
2019-05-02T13:43:24.834Z,24.10
2019-05-02T13:46:12.445Z,24.05
2019-05-02T13:48:44.363Z,22.67
2019-05-02T13:51:14.458Z,23.80
2019-05-02T13:53:56.328Z,24.25
2019-05-02T13:56:45.169Z,21.90
2019-05-02T13:59:15.444Z,23.05
2019-05-02T14:01:45.549Z,23.15
2019-05-02T14:04:15.271Z,22.80
2019-05-02T14:06:44.839Z,21.12
2019-05-02T14:09:26.449Z,21.50
2019-05-02T14:12:06.783Z,20.35
2019-05-02T14:14:36.269Z,21.00
2019-05-02T14:17:05.899Z,18.75
2019-05-02T14:19:44.553Z,23.50
2019-05-02T14:22:32.400Z,32.13
2019-05-02T14:25:03.495Z,37.80
2019-05-02T14:27:33.060Z,41.05
2019-05-02T14:30:02.711Z,40.25
2019-05-02T14:32:34.182Z,44.55
2019-05-02T14:35:18.703Z,47.03
2019-05-02T14:38:07.747Z,46.95
2019-05-02T14:41:06.085Z,48.83
2019-05-02T14:43:55.951Z,50.73
2019-05-02T14:46:37.406Z,51.95
2019-05-02T14:48:57.898Z,50.28
2019-05-02T14:51:28.154Z,52.93
2019-05-02T14:54:03.565Z,52.88
2019-05-02T14:56:52.642Z,52.90
2019-05-02T14:59:22.894Z,54.13
2019-05-02T15:01:57.920Z,53.90
2019-05-02T15:04:26.201Z,54.50
2019-05-02T15:06:55.796Z,54.20
2019-05-02T15:09:27.047Z,52.75
2019-05-02T15:12:02.392Z,52.67
2019-05-02T15:14:32.906Z,53.08
2019-05-02T15:17:03.110Z,53.70
2019-05-02T15:19:33.172Z,55.40
2019-05-02T15:22:02.875Z,55.20
2019-05-02T15:24:37.559Z,52.27
2019-05-02T15:27:12.187Z,53.25
2019-05-02T15:29:36.602Z,51.25
2019-05-02T15:32:30.079Z,52.45
2019-05-02T15:35:21.983Z,51.60
2019-05-02T15:37:49.322Z,53.15
2019-05-02T15:40:47.307Z,51.33
2019-05-02T15:42:52.221Z,51.50
2019-05-02T15:45:23.797Z,52.20
2019-05-02T15:47:53.519Z,45.00
2019-05-02T15:50:25.491Z,26.50
2019-05-02T15:53:09.964Z,22.95
2019-05-02T15:55:39.535Z,28.17
2019-05-02T15:58:16.916Z,32.28
2019-05-02T16:00:49.127Z,41.37
2019-05-02T16:03:19.920Z,43.67
2019-05-02T16:05:49.529Z,49.63
2019-05-02T16:08:19.224Z,51.00
2019-05-02T16:10:48.826Z,52.23
2019-05-02T16:13:18.434Z,47.00
2019-05-02T16:15:48.111Z,46.50
2019-05-02T16:18:17.685Z,49.53
2019-05-02T16:21:09.694Z,48.08
2019-05-02T16:23:42.442Z,40.30
2019-05-02T16:26:12.085Z,38.57
2019-05-02T16:28:45.482Z,42.33
2019-05-02T16:31:17.054Z,41.43
2019-05-02T16:33:49.778Z,39.70
2019-05-02T16:36:17.329Z,42.03
2019-05-02T16:38:46.892Z,41.53
2019-05-02T16:41:16.474Z,42.30
2019-05-02T16:43:46.041Z,39.10
2019-05-02T16:46:15.635Z,37.50
2019-05-02T16:48:45.824Z,37.57
2019-05-02T16:51:29.894Z,35.63
2019-05-02T16:53:46.882Z,37.90
2019-05-02T16:56:16.401Z,39.00
2019-05-02T16:58:47.196Z,39.97
2019-05-02T17:01:26.567Z,41.00
2019-05-02T17:03:48.113Z,40.90
2019-05-02T17:06:22.454Z,42.50
2019-05-02T17:09:02.321Z,42.53
2019-05-02T17:11:37.044Z,42.45
2019-05-02T17:14:11.447Z,43.23
2019-05-02T17:16:38.837Z,42.03
2019-05-02T17:19:09.651Z,40.93
2019-05-02T17:21:52.733Z,42.10
2019-05-02T17:24:12.550Z,38.53
2019-05-02T17:26:42.583Z,37.80
2019-05-02T17:29:16.475Z,33.90
2019-05-02T17:31:44.649Z,36.10
2019-05-02T17:34:14.908Z,34.80
2019-05-02T17:36:45.795Z,37.17
2019-05-02T17:39:15.427Z,35.33
2019-05-02T17:41:45.765Z,32.07
2019-05-02T17:44:18.388Z,33.80
2019-05-02T17:46:50.891Z,34.50
2019-05-02T17:49:18.269Z,36.10
2019-05-02T17:52:06.204Z,33.90
2019-05-02T17:54:37.244Z,34.80
2019-05-02T17:57:08.678Z,39.53
2019-05-02T17:59:38.509Z,35.10
2019-05-02T18:02:14.227Z,36.60
2019-05-02T18:04:41.783Z,40.33
2019-05-02T18:07:12.181Z,38.03
2019-05-02T18:09:41.918Z,40.73
2019-05-02T18:12:14.890Z,42.73
2019-05-02T18:14:43.135Z,41.30
2019-05-02T18:17:12.834Z,40.97
2019-05-02T18:19:42.749Z,42.93
2019-05-02T18:22:23.427Z,42.17
2019-05-02T18:24:46.388Z,44.70
2019-05-02T18:27:15.140Z,46.47
2019-05-02T18:29:45.663Z,49.93
2019-05-02T18:32:17.625Z,44.10
2019-05-02T18:34:47.108Z,45.40
2019-05-02T18:37:18.598Z,47.27
2019-05-02T18:39:53.246Z,45.87
2019-05-02T18:42:21.912Z,45.50
2019-05-02T18:44:53.037Z,47.77
2019-05-02T18:47:24.786Z,50.00
2019-05-02T18:50:00.474Z,47.40
2019-05-02T18:52:35.603Z,50.27
2019-05-02T18:54:55.313Z,49.13
2019-05-02T18:57:26.073Z,47.33
2019-05-02T18:59:56.561Z,49.03
2019-05-02T19:02:32.761Z,48.83
2019-05-02T19:04:58.350Z,46.93
2019-05-02T19:07:33.241Z,49.00
2019-05-02T19:10:04.301Z,48.23
2019-05-02T19:12:32.810Z,47.80
2019-05-02T19:15:06.760Z,49.17
2019-05-02T19:17:38.522Z,47.60
2019-05-02T19:20:13.080Z,49.37
2019-05-02T19:22:48.816Z,47.93
2019-05-02T19:25:13.529Z,48.07
2019-05-02T19:28:00.190Z,47.83
2019-05-02T19:30:30.199Z,50.57
2019-05-02T19:33:06.051Z,47.87
2019-05-02T19:35:32.656Z,47.67
2019-05-02T19:38:02.659Z,45.30
2019-05-02T19:40:32.643Z,41.30
2019-05-02T19:43:07.514Z,44.63
2019-05-02T19:45:35.368Z,45.13
2019-05-02T19:48:05.327Z,42.80
2019-05-02T19:50:43.062Z,44.20
2019-05-02T19:53:17.141Z,46.43
2019-05-02T19:55:42.727Z,46.03
2019-05-02T19:58:12.036Z,44.37
2019-05-02T20:00:46.074Z,45.73
2019-05-02T20:03:21.151Z,45.73
2019-05-02T20:05:44.260Z,45.43
2019-05-02T20:08:14.833Z,44.70
2019-05-02T20:10:49.361Z,42.87
2019-05-02T20:13:20.308Z,47.83
2019-05-02T20:16:05.651Z,52.70
2019-05-02T20:18:34.946Z,45.43
2019-05-02T20:21:29.593Z,44.63
2019-05-02T20:24:01.370Z,51.10
2019-05-02T20:26:32.379Z,47.17
2019-05-02T20:29:01.975Z,43.37
2019-05-02T20:31:32.302Z,41.53
2019-05-02T20:34:02.652Z,40.23
2019-05-02T20:36:32.396Z,32.77
2019-05-02T20:39:02.342Z,31.63
2019-05-02T20:41:34.042Z,32.87
2019-05-02T20:44:03.586Z,27.60
2019-05-02T20:46:33.157Z,22.17
2019-05-02T20:49:02.876Z,19.83
2019-05-02T20:51:32.475Z,15.70
2019-05-02T20:54:03.099Z,16.53
2019-05-02T20:56:32.898Z,14.27
2019-05-02T20:59:02.459Z,15.90
2019-05-02T21:01:32.616Z,12.50
2019-05-02T21:04:02.711Z,11.37
2019-05-02T21:06:48.279Z,11.10
2019-05-02T21:09:46.152Z,9.80
2019-05-02T21:12:15.895Z,10.47
2019-05-02T21:14:45.494Z,9.77
2019-05-02T21:17:15.017Z,9.87
2019-05-02T21:19:44.542Z,9.90
2019-05-02T21:22:16.985Z,10.40
2019-05-02T21:24:47.204Z,10.60
2019-05-02T21:27:16.825Z,9.40
2019-05-02T21:29:46.715Z,9.97
2019-05-02T21:32:16.243Z,9.30
2019-05-02T21:34:46.161Z,10.10
2019-05-02T21:37:15.755Z,10.63
2019-05-02T21:39:45.267Z,10.57
2019-05-02T21:42:15.062Z,10.53
2019-05-02T21:44:44.615Z,10.13
2019-05-02T21:47:14.164Z,10.17
2019-05-02T21:49:56.045Z,12.00
2019-05-02T21:52:45.797Z,11.97
2019-05-02T21:55:26.003Z,11.80
2019-05-02T21:57:55.540Z,10.83
2019-05-02T22:00:52.777Z,10.63
2019-05-02T22:03:24.311Z,11.30
2019-05-02T22:05:54.270Z,11.20
2019-05-02T22:08:23.810Z,10.40
2019-05-02T22:10:53.306Z,10.53
2019-05-02T22:13:23.161Z,11.60
2019-05-02T22:15:52.804Z,11.27
2019-05-02T22:18:22.348Z,10.27
2019-05-02T22:20:52.331Z,11.67
2019-05-02T22:23:21.989Z,10.97
2019-05-02T22:25:52.645Z,11.13
2019-05-02T22:28:22.319Z,10.23
2019-05-02T22:30:54.557Z,10.40
2019-05-02T22:33:23.641Z,10.67
2019-05-02T22:35:53.165Z,10.50
2019-05-02T22:39:02.011Z,10.73
2019-05-02T22:41:32.670Z,10.03
2019-05-02T22:44:02.284Z,11.00
2019-05-02T22:46:43.486Z,11.27
2019-05-02T22:49:14.589Z,9.83
2019-05-02T22:51:44.887Z,10.80
2019-05-02T22:54:26.718Z,11.07
2019-05-02T22:56:46.289Z,9.97
2019-05-02T22:59:15.874Z,11.07
2019-05-02T23:01:45.760Z,10.20
2019-05-02T23:04:15.307Z,10.70
2019-05-02T23:06:44.872Z,11.03
2019-05-02T23:09:14.347Z,10.93
2019-05-02T23:11:43.842Z,10.03
2019-05-02T23:14:13.390Z,11.00
2019-05-02T23:16:42.994Z,10.17
2019-05-02T23:19:12.620Z,11.60
2019-05-02T23:21:42.475Z,11.33
2019-05-02T23:24:18.069Z,11.93
2019-05-02T23:27:11.721Z,11.90
2019-05-02T23:29:42.549Z,12.77
2019-05-02T23:32:12.185Z,12.70
2019-05-02T23:34:41.859Z,12.67
2019-05-02T23:37:11.947Z,13.13
2019-05-02T23:39:41.862Z,12.83
2019-05-02T23:42:13.406Z,13.97
2019-05-02T23:44:43.649Z,14.30
2019-05-02T23:47:13.159Z,13.30
2019-05-02T23:49:42.818Z,14.40
2019-05-02T23:52:12.487Z,14.10
2019-05-02T23:54:49.947Z,15.43
2019-05-02T23:57:14.237Z,15.50
2019-05-02T23:59:43.722Z,15.73
